createdAt,value
2023-02-11T00:01:23.437Z,62.47
2023-02-11T00:03:53.755Z,62.60
2023-02-11T00:06:24.141Z,63.77
2023-02-11T00:08:54.200Z,61.77
2023-02-11T00:11:26.589Z,61.23
2023-02-11T00:13:56.533Z,74.37
2023-02-11T00:16:29.933Z,60.90
2023-02-11T00:19:01.437Z,66.50
2023-02-11T00:21:32.033Z,70.27
2023-02-11T00:24:02.910Z,70.27
2023-02-11T00:26:35.637Z,66.73
2023-02-11T00:29:06.736Z,64.27
2023-02-11T00:31:39.521Z,64.97
2023-02-11T00:34:09.637Z,67.83
2023-02-11T00:36:39.548Z,70.23
2023-02-11T00:39:11.201Z,65.10
2023-02-11T00:41:41.212Z,64.13
2023-02-11T00:44:11.192Z,67.47
2023-02-11T00:46:43.968Z,62.17
2023-02-11T00:49:14.456Z,64.97
2023-02-11T00:51:44.940Z,59.33
2023-02-11T00:54:15.873Z,64.37
2023-02-11T00:56:46.536Z,65.63
2023-02-11T00:59:16.548Z,62.33
2023-02-11T01:01:49.920Z,64.10
2023-02-11T01:04:19.918Z,62.73
2023-02-11T01:06:49.961Z,58.77
2023-02-11T01:09:21.210Z,60.73
2023-02-11T01:11:51.340Z,53.60
2023-02-11T01:14:21.236Z,59.80
2023-02-11T01:16:56.243Z,60.37
2023-02-11T01:19:26.271Z,62.47
2023-02-11T01:21:56.320Z,68.87
2023-02-11T01:24:26.311Z,67.87
2023-02-11T01:26:56.293Z,63.07
2023-02-11T01:29:27.728Z,62.17
2023-02-11T01:32:00.874Z,54.50
2023-02-11T01:34:30.984Z,67.53
2023-02-11T01:37:01.680Z,68.13
2023-02-11T01:39:35.476Z,59.17
2023-02-11T01:42:05.782Z,63.30
2023-02-11T01:44:38.247Z,69.17
2023-02-11T01:47:11.264Z,68.53
2023-02-11T01:49:44.681Z,59.87
2023-02-11T01:52:20.461Z,69.20
2023-02-11T01:55:09.191Z,68.90
2023-02-11T01:57:42.581Z,65.23
2023-02-11T02:00:17.099Z,77.70
2023-02-11T02:02:57.776Z,62.20
2023-02-11T02:05:35.433Z,60.37
2023-02-11T02:08:12.614Z,63.27
2023-02-11T02:10:46.062Z,59.67
2023-02-11T02:13:16.314Z,62.53
2023-02-11T02:15:53.035Z,65.70
2023-02-11T02:18:38.839Z,65.30
2023-02-11T02:21:50.456Z,62.30
2023-02-11T02:24:47.335Z,59.00
2023-02-11T02:27:36.073Z,62.30
2023-02-11T02:30:38.754Z,57.03
2023-02-11T02:33:37.863Z,58.67
2023-02-11T02:36:25.985Z,63.80
2023-02-11T02:39:00.733Z,58.43
2023-02-11T02:41:33.690Z,67.63
2023-02-11T02:44:04.771Z,64.90
2023-02-11T02:46:36.653Z,59.07
2023-02-11T02:49:13.750Z,74.43
2023-02-11T02:52:07.057Z,62.10
2023-02-11T02:55:06.917Z,65.73
2023-02-11T02:57:47.858Z,62.50
2023-02-11T03:00:26.642Z,63.70
2023-02-11T03:03:11.587Z,69.17
2023-02-11T03:05:52.890Z,67.27
2023-02-11T03:08:30.381Z,61.93
2023-02-11T03:11:03.475Z,67.27
2023-02-11T03:13:36.840Z,62.83
2023-02-11T03:16:12.305Z,60.50
2023-02-11T03:18:47.149Z,69.60
2023-02-11T03:21:22.902Z,63.67
2023-02-11T03:23:56.502Z,70.23
2023-02-11T03:26:33.482Z,70.00
2023-02-11T03:29:07.485Z,68.80
2023-02-11T03:31:43.006Z,65.07
2023-02-11T03:34:16.133Z,66.57
2023-02-11T03:36:53.984Z,68.07
2023-02-11T03:39:27.639Z,70.83
2023-02-11T03:42:01.170Z,68.13
2023-02-11T03:44:36.114Z,67.60
2023-02-11T03:47:08.620Z,64.27
2023-02-11T03:49:41.338Z,66.70
2023-02-11T03:52:16.403Z,63.43
2023-02-11T03:54:49.258Z,61.40
2023-02-11T03:57:19.514Z,77.30
2023-02-11T04:00:00.157Z,66.20
2023-02-11T04:02:34.749Z,72.87
2023-02-11T04:05:05.366Z,73.03
2023-02-11T04:07:38.359Z,72.70
2023-02-11T04:10:10.169Z,73.13
2023-02-11T04:12:40.364Z,64.87
2023-02-11T04:15:11.411Z,69.37
2023-02-11T04:17:42.527Z,74.73
2023-02-11T04:20:14.235Z,69.90
2023-02-11T04:22:46.908Z,67.93
2023-02-11T04:25:16.950Z,73.73
2023-02-11T04:27:46.859Z,67.53
2023-02-11T04:30:16.986Z,69.90
2023-02-11T04:32:47.006Z,72.33
2023-02-11T04:35:17.022Z,75.43
2023-02-11T04:37:49.578Z,75.10
2023-02-11T04:40:20.089Z,79.27
2023-02-11T04:42:50.234Z,77.83
2023-02-11T04:45:20.228Z,79.07
2023-02-11T04:47:50.176Z,72.47
2023-02-11T04:50:20.609Z,74.43
2023-02-11T04:52:53.213Z,77.57
2023-02-11T04:55:23.283Z,82.63
2023-02-11T04:57:53.255Z,80.13
2023-02-11T05:00:23.658Z,79.27
2023-02-11T05:02:53.676Z,72.80
2023-02-11T05:05:23.647Z,79.17
2023-02-11T05:07:56.345Z,83.37
2023-02-11T05:10:26.462Z,82.60
2023-02-11T05:12:56.402Z,84.60
2023-02-11T05:15:26.474Z,84.47
2023-02-11T05:17:56.838Z,83.37
2023-02-11T05:20:26.808Z,79.10
2023-02-11T05:22:59.302Z,80.03
2023-02-11T05:25:29.306Z,93.70
2023-02-11T05:27:59.609Z,80.97
2023-02-11T05:30:29.692Z,85.87
2023-02-11T05:33:00.194Z,84.67
2023-02-11T05:35:30.315Z,83.67
2023-02-11T05:38:02.910Z,74.33
2023-02-11T05:40:32.920Z,92.40
2023-02-11T05:43:02.899Z,70.70
2023-02-11T05:45:33.091Z,85.83
2023-02-11T05:48:03.385Z,82.83
2023-02-11T05:50:34.436Z,83.47
2023-02-11T05:53:07.132Z,96.73
2023-02-11T05:55:37.724Z,93.87
2023-02-11T05:58:09.290Z,93.23
2023-02-11T06:00:42.141Z,102.97
2023-02-11T06:03:12.176Z,83.30
2023-02-11T06:05:42.236Z,88.43
2023-02-11T06:08:15.300Z,90.13
2023-02-11T06:10:47.879Z,90.77
2023-02-11T06:13:18.697Z,102.47
2023-02-11T06:15:49.087Z,97.30
2023-02-11T06:18:19.445Z,93.90
2023-02-11T06:20:49.605Z,90.60
2023-02-11T06:23:22.171Z,94.40
2023-02-11T06:25:52.370Z,96.73
2023-02-11T06:28:22.802Z,93.93
2023-02-11T06:30:52.811Z,91.37
2023-02-11T06:33:22.827Z,102.13
2023-02-11T06:35:53.083Z,101.83
2023-02-11T06:38:25.676Z,102.93
2023-02-11T06:40:55.586Z,95.83
2023-02-11T06:43:25.701Z,101.67
2023-02-11T06:45:56.969Z,97.13
2023-02-11T06:48:27.229Z,87.73
2023-02-11T06:50:57.232Z,103.70
2023-02-11T06:53:31.976Z,98.53
2023-02-11T06:56:05.878Z,106.03
2023-02-11T06:58:35.892Z,104.33
2023-02-11T07:01:08.214Z,109.07
2023-02-11T07:03:39.451Z,102.83
2023-02-11T07:06:15.668Z,98.40
2023-02-11T07:08:49.014Z,93.30
2023-02-11T07:11:21.184Z,103.40
2023-02-11T07:13:51.202Z,95.07
2023-02-11T07:16:22.402Z,92.90
2023-02-11T07:18:52.815Z,102.23
2023-02-11T07:21:25.626Z,101.00
2023-02-11T07:23:58.294Z,111.90
2023-02-11T07:26:29.086Z,105.20
2023-02-11T07:28:59.192Z,107.13
2023-02-11T07:31:31.034Z,109.47
2023-02-11T07:34:03.282Z,94.77
2023-02-11T07:36:34.592Z,109.77
2023-02-11T07:39:07.510Z,106.90
2023-02-11T07:41:38.156Z,110.87
2023-02-11T07:44:08.744Z,90.13
2023-02-11T07:46:43.139Z,106.33
2023-02-11T07:49:13.723Z,100.93
2023-02-11T07:51:43.648Z,109.37
2023-02-11T07:54:16.271Z,96.43
2023-02-11T07:56:46.280Z,110.60
2023-02-11T07:59:16.323Z,102.60
2023-02-11T08:01:46.421Z,104.50
2023-02-11T08:04:16.471Z,107.57
2023-02-11T08:06:46.981Z,103.23
2023-02-11T08:09:19.851Z,88.47
2023-02-11T08:11:49.840Z,99.63
2023-02-11T08:14:20.786Z,97.67
2023-02-11T08:16:51.103Z,98.13
2023-02-11T08:19:21.168Z,100.77
2023-02-11T08:21:51.158Z,101.57
2023-02-11T08:24:23.972Z,99.30
2023-02-11T08:26:53.908Z,100.13
2023-02-11T08:29:23.887Z,99.17
2023-02-11T08:31:54.058Z,96.80
2023-02-11T08:34:24.020Z,139.70
2023-02-11T08:36:54.140Z,93.07
2023-02-11T08:39:26.687Z,96.93
2023-02-11T08:41:58.316Z,98.90
2023-02-11T08:44:29.711Z,93.47
2023-02-11T08:46:59.710Z,96.13
2023-02-11T08:49:30.734Z,96.57
2023-02-11T08:52:04.344Z,86.07
2023-02-11T08:54:37.208Z,95.37
2023-02-11T08:57:07.913Z,103.50
2023-02-11T08:59:40.119Z,94.47
2023-02-11T09:02:14.282Z,92.27
2023-02-11T09:04:44.376Z,95.23
2023-02-11T09:07:14.651Z,98.33
2023-02-11T09:09:50.221Z,105.60
2023-02-11T09:12:20.317Z,100.33
2023-02-11T09:14:50.307Z,90.60
2023-02-11T09:17:20.360Z,88.47
2023-02-11T09:19:50.269Z,93.93
2023-02-11T09:22:20.453Z,96.63
2023-02-11T09:24:53.094Z,84.23
2023-02-11T09:27:23.079Z,112.73
2023-02-11T09:29:53.179Z,92.10
2023-02-11T09:32:23.104Z,82.63
2023-02-11T09:34:53.112Z,84.13
2023-02-11T09:37:23.051Z,88.73
2023-02-11T09:39:55.579Z,85.77
2023-02-11T09:42:43.410Z,96.60
2023-02-11T09:45:18.749Z,82.40
2023-02-11T09:47:52.575Z,90.27
2023-02-11T09:50:29.027Z,90.20
2023-02-11T09:53:03.046Z,93.73
2023-02-11T09:55:39.609Z,96.33
2023-02-11T09:58:15.978Z,89.57
2023-02-11T10:00:50.341Z,91.13
2023-02-11T10:03:45.343Z,82.73
2023-02-11T10:06:28.345Z,70.90
2023-02-11T10:09:10.602Z,86.03
2023-02-11T10:11:54.005Z,88.07
2023-02-11T10:14:43.875Z,98.00
2023-02-11T10:17:22.453Z,87.67
2023-02-11T10:20:05.631Z,96.90
2023-02-11T10:22:40.596Z,89.27
2023-02-11T10:25:23.010Z,91.53
2023-02-11T10:27:58.603Z,94.60
2023-02-11T10:30:34.010Z,89.80
2023-02-11T10:33:09.657Z,85.33
2023-02-11T10:35:42.576Z,90.67
2023-02-11T10:38:13.674Z,81.50
2023-02-11T10:40:44.081Z,85.93
2023-02-11T10:43:18.524Z,82.83
2023-02-11T10:45:52.776Z,85.70
2023-02-11T10:48:42.488Z,85.07
2023-02-11T10:51:21.455Z,90.50
2023-02-11T10:53:53.479Z,90.13
2023-02-11T10:56:33.315Z,88.00
2023-02-11T10:59:10.437Z,77.30
2023-02-11T11:01:46.765Z,74.20
2023-02-11T11:04:37.576Z,81.57
2023-02-11T11:07:21.148Z,85.97
2023-02-11T11:09:55.053Z,86.37
2023-02-11T11:12:40.290Z,78.77
2023-02-11T11:15:23.714Z,81.13
2023-02-11T11:18:21.326Z,79.73
2023-02-11T11:21:00.183Z,80.83
2023-02-11T11:23:32.633Z,83.93
2023-02-11T11:26:07.152Z,79.47
2023-02-11T11:28:43.697Z,81.00
2023-02-11T11:31:23.271Z,84.43
2023-02-11T11:33:56.790Z,83.27
2023-02-11T11:36:35.292Z,92.87
2023-02-11T11:39:20.291Z,69.30
2023-02-11T11:41:56.577Z,78.00
2023-02-11T11:44:30.104Z,74.67
2023-02-11T11:47:29.983Z,75.60
2023-02-11T11:50:28.103Z,70.43
2023-02-11T11:53:04.670Z,70.60
2023-02-11T11:55:44.516Z,69.17
2023-02-11T11:58:19.347Z,68.73
2023-02-11T12:00:57.806Z,71.50
2023-02-11T12:04:01.475Z,76.43
2023-02-11T12:06:43.202Z,62.43
2023-02-11T12:09:23.041Z,65.63
2023-02-11T12:12:18.057Z,64.53
2023-02-11T12:14:59.828Z,71.27
2023-02-11T12:17:53.238Z,63.67
2023-02-11T12:20:34.950Z,71.90
2023-02-11T12:23:24.282Z,67.43
2023-02-11T12:26:00.866Z,67.27
2023-02-11T12:28:41.871Z,68.97
2023-02-11T12:31:26.938Z,63.23
2023-02-11T12:34:16.096Z,69.80
2023-02-11T12:37:02.813Z,64.57
2023-02-11T12:39:46.093Z,62.00
2023-02-11T12:42:53.895Z,57.77
2023-02-11T12:45:41.259Z,55.73
2023-02-11T12:48:25.651Z,52.57
2023-02-11T12:51:03.864Z,55.03
2023-02-11T12:53:55.110Z,56.00
2023-02-11T12:56:31.277Z,44.63
2023-02-11T12:59:05.901Z,45.93
2023-02-11T13:01:42.867Z,49.90
2023-02-11T13:04:22.782Z,49.70
2023-02-11T13:06:56.676Z,49.57
2023-02-11T13:09:35.185Z,52.23
2023-02-11T13:12:22.744Z,43.03
2023-02-11T13:14:55.199Z,42.83
2023-02-11T13:17:30.832Z,41.67
2023-02-11T13:20:05.690Z,46.03
2023-02-11T13:22:41.635Z,40.67
2023-02-11T13:25:28.388Z,53.07
2023-02-11T13:28:05.864Z,48.07
2023-02-11T13:30:39.648Z,44.63
2023-02-11T13:33:33.449Z,44.50
2023-02-11T13:36:21.507Z,46.37
2023-02-11T13:39:01.090Z,43.37
2023-02-11T13:41:40.727Z,47.43
2023-02-11T13:44:26.748Z,42.33
2023-02-11T13:47:08.505Z,40.40
2023-02-11T13:49:41.231Z,47.03
2023-02-11T13:52:26.929Z,44.07
2023-02-11T13:54:59.698Z,45.47
2023-02-11T13:57:42.893Z,48.97
2023-02-11T14:00:52.200Z,43.47
2023-02-11T14:03:47.000Z,42.50
2023-02-11T14:06:33.240Z,41.13
2023-02-11T14:09:11.699Z,39.67
2023-02-11T14:11:55.416Z,40.57
2023-02-11T14:14:29.572Z,43.57
2023-02-11T14:17:36.034Z,43.93
2023-02-11T14:20:28.706Z,42.00
2023-02-11T14:22:59.494Z,41.07
2023-02-11T14:25:30.624Z,40.23
2023-02-11T14:28:09.763Z,42.33
2023-02-11T14:30:53.969Z,35.73
2023-02-11T14:34:06.001Z,36.87
2023-02-11T14:36:54.769Z,42.57
2023-02-11T14:39:48.082Z,36.23
2023-02-11T14:42:22.629Z,41.07
2023-02-11T14:44:53.721Z,34.97
2023-02-11T14:47:31.093Z,35.70
2023-02-11T14:50:01.203Z,39.47
2023-02-11T14:52:33.467Z,33.80
2023-02-11T14:55:18.021Z,29.33
2023-02-11T14:57:51.157Z,29.53
2023-02-11T15:00:24.061Z,30.60
2023-02-11T15:02:57.112Z,30.43
2023-02-11T15:05:30.323Z,36.30
2023-02-11T15:08:02.689Z,31.20
2023-02-11T15:10:36.299Z,25.80
2023-02-11T15:13:07.912Z,27.93
2023-02-11T15:15:38.798Z,31.17
2023-02-11T15:18:12.216Z,32.80
2023-02-11T15:20:44.514Z,34.17
2023-02-11T15:23:24.552Z,27.87
2023-02-11T15:25:56.309Z,28.00
2023-02-11T15:28:29.051Z,28.37
2023-02-11T15:31:08.180Z,28.77
2023-02-11T15:33:40.873Z,28.63
2023-02-11T15:36:14.813Z,27.40
2023-02-11T15:38:45.149Z,29.83
2023-02-11T15:41:37.707Z,29.33
2023-02-11T15:44:08.252Z,31.60
2023-02-11T15:46:42.295Z,25.10
2023-02-11T15:49:21.527Z,30.10
2023-02-11T15:51:52.023Z,25.53
2023-02-11T15:54:23.943Z,28.80
2023-02-11T15:57:02.791Z,25.37
2023-02-11T15:59:38.244Z,23.93
2023-02-11T16:02:11.366Z,27.10
2023-02-11T16:04:53.942Z,25.73
2023-02-11T16:07:42.881Z,23.53
2023-02-11T16:10:21.441Z,23.40
2023-02-11T16:13:04.650Z,21.33
2023-02-11T16:15:51.097Z,23.80
2023-02-11T16:18:39.070Z,21.30
2023-02-11T16:21:19.001Z,23.23
2023-02-11T16:23:55.969Z,20.33
2023-02-11T16:26:31.961Z,26.60
2023-02-11T16:29:10.637Z,23.70
2023-02-11T16:31:43.544Z,28.73
2023-02-11T16:34:18.736Z,26.10
2023-02-11T16:36:52.998Z,26.77
2023-02-11T16:39:24.430Z,24.50
2023-02-11T16:41:56.221Z,24.00
2023-02-11T16:44:26.164Z,25.33
2023-02-11T16:46:56.975Z,24.50
2023-02-11T16:49:30.627Z,23.63
2023-02-11T16:52:09.250Z,27.13
2023-02-11T16:54:39.281Z,29.30
2023-02-11T16:57:16.362Z,21.73
2023-02-11T16:59:46.695Z,22.00
2023-02-11T17:02:23.616Z,24.10
2023-02-11T17:04:55.198Z,18.67
2023-02-11T17:07:28.011Z,20.13
2023-02-11T17:09:58.156Z,18.30
2023-02-11T17:12:28.414Z,19.53
2023-02-11T17:14:58.475Z,20.13
2023-02-11T17:17:30.067Z,19.93
2023-02-11T17:20:00.155Z,16.67
2023-02-11T17:22:32.866Z,16.00
2023-02-11T17:25:03.059Z,15.37
2023-02-11T17:27:33.374Z,16.23
2023-02-11T17:30:03.532Z,18.17
2023-02-11T17:32:33.538Z,17.47
2023-02-11T17:35:03.579Z,16.40
2023-02-11T17:37:36.316Z,14.33
2023-02-11T17:40:07.018Z,18.07
2023-02-11T17:42:37.214Z,16.70
2023-02-11T17:45:08.582Z,18.00
2023-02-11T17:47:39.153Z,16.57
2023-02-11T17:50:13.655Z,17.90
2023-02-11T17:52:46.487Z,19.40
2023-02-11T17:55:16.675Z,17.17
2023-02-11T17:57:46.996Z,17.87
2023-02-11T18:00:18.496Z,16.67
2023-02-11T18:02:48.837Z,13.53
2023-02-11T18:05:19.324Z,14.07
2023-02-11T18:07:51.976Z,14.30
2023-02-11T18:10:22.209Z,18.93
2023-02-11T18:12:52.564Z,15.37
2023-02-11T18:15:22.639Z,14.47
2023-02-11T18:17:53.985Z,14.50
2023-02-11T18:20:24.246Z,18.23
2023-02-11T18:22:56.887Z,16.90
2023-02-11T18:25:26.870Z,14.83
2023-02-11T18:27:56.837Z,13.57
2023-02-11T18:30:31.326Z,18.97
2023-02-11T18:33:01.559Z,16.63
2023-02-11T18:35:31.611Z,17.33
2023-02-11T18:38:04.333Z,15.80
2023-02-11T18:40:34.516Z,15.13
2023-02-11T18:43:04.539Z,18.07
2023-02-11T18:45:34.658Z,17.13
2023-02-11T18:48:05.384Z,18.80
2023-02-11T18:50:35.488Z,15.47
2023-02-11T18:53:08.120Z,14.97
2023-02-11T18:55:38.135Z,16.73
2023-02-11T18:58:10.721Z,13.80
2023-02-11T19:00:44.273Z,15.90
2023-02-11T19:03:14.406Z,18.13
2023-02-11T19:05:45.222Z,13.37
2023-02-11T19:08:18.533Z,13.07
2023-02-11T19:10:50.201Z,16.27
2023-02-11T19:13:20.190Z,14.03
2023-02-11T19:15:50.706Z,15.33
2023-02-11T19:18:20.987Z,12.40
2023-02-11T19:20:51.059Z,16.20
2023-02-11T19:23:23.748Z,46.23
2023-02-11T19:25:53.988Z,16.13
2023-02-11T19:28:24.268Z,14.50
2023-02-11T19:30:54.569Z,17.63
2023-02-11T19:33:24.835Z,14.33
2023-02-11T19:35:54.996Z,17.70
2023-02-11T19:38:27.727Z,17.70
2023-02-11T19:41:01.370Z,14.50
2023-02-11T19:43:31.532Z,18.57
2023-02-11T19:46:04.731Z,18.13
2023-02-11T19:48:35.193Z,18.90
2023-02-11T19:51:13.746Z,18.60
2023-02-11T19:53:47.550Z,14.97
2023-02-11T19:56:20.483Z,16.33
2023-02-11T19:58:51.341Z,14.77
2023-02-11T20:01:23.865Z,14.20
2023-02-11T20:03:55.671Z,20.70
2023-02-11T20:06:28.150Z,16.10
2023-02-11T20:09:02.824Z,15.30
2023-02-11T20:11:34.407Z,15.83
2023-02-11T20:14:04.752Z,14.37
2023-02-11T20:16:47.611Z,19.13
2023-02-11T20:19:19.615Z,28.47
2023-02-11T20:21:50.956Z,20.17
2023-02-11T20:24:24.142Z,19.37
2023-02-11T20:26:55.973Z,18.83
2023-02-11T20:29:27.451Z,20.43
2023-02-11T20:31:57.708Z,17.23
2023-02-11T20:34:27.827Z,18.67
2023-02-11T20:36:57.878Z,15.37
2023-02-11T20:39:30.446Z,19.20
2023-02-11T20:42:00.507Z,19.00
2023-02-11T20:44:30.523Z,19.97
2023-02-11T20:47:00.608Z,18.00
2023-02-11T20:49:30.758Z,17.90
2023-02-11T20:52:01.200Z,16.87
2023-02-11T20:54:33.794Z,22.43
2023-02-11T20:57:03.924Z,20.70
2023-02-11T20:59:34.117Z,16.97
2023-02-11T21:02:04.169Z,19.40
2023-02-11T21:04:34.497Z,15.97
2023-02-11T21:07:05.106Z,16.13
2023-02-11T21:09:38.313Z,18.23
2023-02-11T21:12:09.277Z,18.80
2023-02-11T21:14:39.275Z,15.67
2023-02-11T21:17:09.261Z,19.10
2023-02-11T21:19:39.422Z,14.70
2023-02-11T21:22:09.350Z,23.43
2023-02-11T21:24:41.968Z,19.27
2023-02-11T21:27:11.926Z,16.40
2023-02-11T21:29:53.428Z,17.97
2023-02-11T21:32:26.164Z,16.00
2023-02-11T21:34:56.877Z,18.07
2023-02-11T21:37:27.562Z,17.03
2023-02-11T21:40:00.138Z,19.50
2023-02-11T21:42:30.160Z,15.37
2023-02-11T21:45:00.360Z,16.27
2023-02-11T21:47:30.476Z,17.80
2023-02-11T21:50:00.558Z,18.93
2023-02-11T21:52:30.506Z,19.73
2023-02-11T21:55:03.152Z,15.93
2023-02-11T21:57:33.693Z,18.70
2023-02-11T22:00:03.720Z,20.10
2023-02-11T22:02:35.611Z,20.13
2023-02-11T22:05:05.712Z,18.07
2023-02-11T22:07:37.848Z,21.77
2023-02-11T22:10:12.200Z,24.47
2023-02-11T22:12:42.505Z,19.93
2023-02-11T22:15:13.281Z,22.30
2023-02-11T22:17:43.257Z,13.00
2023-02-11T22:20:14.202Z,16.20
2023-02-11T22:22:44.328Z,19.03
2023-02-11T22:25:16.987Z,19.73
2023-02-11T22:27:46.959Z,16.93
2023-02-11T22:30:17.276Z,17.87
2023-02-11T22:32:47.509Z,22.10
2023-02-11T22:35:17.716Z,23.47
2023-02-11T22:37:47.828Z,20.57
2023-02-11T22:40:20.505Z,20.70
2023-02-11T22:42:50.620Z,17.23
2023-02-11T22:45:20.608Z,24.03
2023-02-11T22:47:50.644Z,24.50
2023-02-11T22:50:20.785Z,26.00
2023-02-11T22:52:50.825Z,23.07
2023-02-11T22:55:23.349Z,23.60
2023-02-11T22:57:53.404Z,18.43
2023-02-11T23:00:24.306Z,17.63
2023-02-11T23:02:54.700Z,16.93
2023-02-11T23:05:24.670Z,22.50
2023-02-11T23:07:54.670Z,19.13
2023-02-11T23:10:27.291Z,20.33
2023-02-11T23:12:57.356Z,14.23
2023-02-11T23:15:27.466Z,19.60
2023-02-11T23:17:57.507Z,20.30
2023-02-11T23:20:27.562Z,20.33
2023-02-11T23:22:57.651Z,24.90
2023-02-11T23:25:30.213Z,19.87
2023-02-11T23:28:00.520Z,23.50
2023-02-11T23:30:31.563Z,22.13
2023-02-11T23:33:01.595Z,22.80
2023-02-11T23:35:31.830Z,25.73
2023-02-11T23:38:01.864Z,23.27
2023-02-11T23:40:34.629Z,22.57
2023-02-11T23:43:04.605Z,21.33
2023-02-11T23:45:35.013Z,15.53
2023-02-11T23:48:05.160Z,23.70
2023-02-11T23:50:35.900Z,17.37
2023-02-11T23:53:06.274Z,15.70
2023-02-11T23:55:40.025Z,20.83
2023-02-11T23:58:10.625Z,22.67
